Time;durP1;ratioP1;P1;durP2;ratioP2;P2;SDS_P1;SDS_P2;PMS_P1;PMS_P2;Temp;Humidity;BMP_temperature;BMP_pressure;BME280_temperature;BME280_humidity;BME280_pressure;Samples;Min_cycle;Max_cycle;Signal;HPM_P1;HPM_P2
2023/01/20 00:01:24;;;;;;;10.00;9.00;;;0.80;99.90;;;;;;5052748;28;20171;-65
2023/01/20 00:03:52;;;;;;;9.17;8.30;;;0.80;99.90;;;;;;5053964;28;20198;-65
2023/01/20 00:06:17;;;;;;;9.27;8.67;;;0.80;99.90;;;;;;5063777;28;20530;-65
2023/01/20 00:08:43;;;;;;;10.23;9.47;;;0.80;99.90;;;;;;5052884;28;20229;-65
2023/01/20 00:11:11;;;;;;;9.90;9.03;;;0.70;99.90;;;;;;5052545;28;20202;-65
2023/01/20 00:13:38;;;;;;;9.50;8.73;;;0.70;99.90;;;;;;5052570;28;20214;-65
2023/01/20 00:16:04;;;;;;;8.73;8.23;;;0.70;99.90;;;;;;5071520;28;20244;-65
2023/01/20 00:18:30;;;;;;;9.33;8.37;;;0.70;99.90;;;;;;5074150;28;20170;-65
2023/01/20 00:21:00;;;;;;;8.87;8.17;;;0.80;99.90;;;;;;5054634;28;20236;-65
2023/01/20 00:23:26;;;;;;;9.90;9.20;;;0.90;99.90;;;;;;5051953;28;20191;-64
2023/01/20 00:25:51;;;;;;;9.60;8.87;;;0.90;99.90;;;;;;5069055;28;20807;-64
2023/01/20 00:28:17;;;;;;;10.03;7.17;;;0.90;99.90;;;;;;5072039;28;20198;-65
2023/01/20 00:30:43;;;;;;;8.30;7.83;;;0.90;99.90;;;;;;5055023;28;20198;-65
2023/01/20 00:33:08;;;;;;;11.37;8.53;;;1.00;99.90;;;;;;5051612;28;20221;-65
2023/01/20 00:35:37;;;;;;;8.57;8.17;;;1.00;99.90;;;;;;5066322;28;20597;-65
2023/01/20 00:38:02;;;;;;;9.40;8.60;;;1.00;99.90;;;;;;5071510;28;20167;-65
2023/01/20 00:40:28;;;;;;;9.73;8.73;;;1.00;99.90;;;;;;5070036;28;20181;-64
2023/01/20 00:42:53;;;;;;;9.30;8.47;;;1.10;99.90;;;;;;5071180;28;20333;-64
2023/01/20 00:45:19;;;;;;;10.17;9.10;;;1.10;99.90;;;;;;5058265;28;20179;-64
2023/01/20 00:47:44;;;;;;;9.30;8.47;;;1.10;99.90;;;;;;5051292;28;20257;-64
2023/01/20 00:50:10;;;;;;;9.53;8.73;;;1.20;99.90;;;;;;5051328;28;20175;-65
2023/01/20 00:52:36;;;;;;;9.37;8.47;;;1.30;99.90;;;;;;5050615;28;20179;-64
2023/01/20 00:55:02;;;;;;;8.33;7.87;;;1.30;99.90;;;;;;5050728;28;20179;-65
2023/01/20 00:57:27;;;;;;;9.07;8.37;;;1.30;99.90;;;;;;5051327;28;20246;-66
2023/01/20 00:59:53;;;;;;;9.07;8.50;;;1.40;99.90;;;;;;5059061;28;20178;-65
2023/01/20 01:02:18;;;;;;;9.67;9.07;;;1.60;99.90;;;;;;5071299;28;20699;-65
2023/01/20 01:04:48;;;;;;;9.27;8.43;;;1.50;99.90;;;;;;5064314;28;20239;-65
2023/01/20 01:07:13;;;;;;;9.87;9.07;;;1.50;99.90;;;;;;5050538;28;20241;-65
2023/01/20 01:09:39;;;;;;;9.47;8.63;;;1.50;99.90;;;;;;5056268;28;20744;-65
2023/01/20 01:12:04;;;;;;;8.80;8.17;;;1.60;99.90;;;;;;5070850;28;20245;-65
2023/01/20 01:14:31;;;;;;;8.90;8.40;;;1.50;99.90;;;;;;5066679;28;20170;-65
2023/01/20 01:16:56;;;;;;;8.83;8.23;;;1.50;99.90;;;;;;5051864;28;20645;-65
2023/01/20 01:19:22;;;;;;;7.77;7.27;;;1.50;99.90;;;;;;5055518;28;20182;-65
2023/01/20 01:21:48;;;;;;;9.23;8.43;;;1.50;99.90;;;;;;5071860;28;20219;-65
2023/01/20 01:24:13;;;;;;;9.43;8.50;;;1.50;99.90;;;;;;5069604;28;20259;-66
2023/01/20 01:26:39;;;;;;;8.07;7.63;;;1.50;99.90;;;;;;5054057;28;20182;-65
2023/01/20 01:29:04;;;;;;;12.87;9.17;;;1.50;99.90;;;;;;5056096;28;20171;-65
2023/01/20 01:31:30;;;;;;;8.60;7.90;;;1.50;99.90;;;;;;5074294;28;20193;-65
2023/01/20 01:33:55;;;;;;;8.10;7.63;;;1.50;99.90;;;;;;5074539;28;20278;-66
2023/01/20 01:36:21;;;;;;;8.80;8.20;;;1.40;99.90;;;;;;5055167;28;20281;-66
2023/01/20 01:38:47;;;;;;;10.57;9.77;;;1.40;99.90;;;;;;5054677;28;20170;-66
2023/01/20 01:41:14;;;;;;;8.87;8.20;;;1.40;99.90;;;;;;5072416;28;20655;-65
2023/01/20 01:44:08;;;;;;;9.47;8.87;;;1.40;99.90;;;;;;5075094;28;20210;-65
2023/01/20 01:46:35;;;;;;;10.90;7.80;;;1.40;99.90;;;;;;5034768;28;20528;-65
2023/01/20 01:49:07;;;;;;;9.00;8.40;;;1.50;99.90;;;;;;5035205;28;20676;-65
2023/01/20 01:51:40;;;;;;;10.80;9.37;;;1.40;99.90;;;;;;5034511;28;20194;-65
2023/01/20 01:54:12;;;;;;;9.90;9.30;;;1.40;99.90;;;;;;5034955;28;20587;-65
2023/01/20 01:56:40;;;;;;;10.23;9.50;;;1.40;99.90;;;;;;5054453;28;20171;-65
2023/01/20 01:59:08;;;;;;;9.37;8.67;;;1.30;99.90;;;;;;5054292;28;20170;-65
2023/01/20 02:01:37;;;;;;;11.90;8.70;;;1.30;99.90;;;;;;5054369;28;20181;-65
2023/01/20 02:04:07;;;;;;;8.03;7.53;;;1.20;99.90;;;;;;5054079;28;20217;-65
2023/01/20 02:06:37;;;;;;;9.87;9.17;;;1.20;99.90;;;;;;5035041;28;20254;-65
2023/01/20 02:09:03;;;;;;;8.50;8.00;;;1.20;99.90;;;;;;5047285;28;20700;-65
2023/01/20 02:11:34;;;;;;;10.60;9.53;;;1.20;99.90;;;;;;5076442;28;20217;-65
2023/01/20 02:13:59;;;;;;;9.20;8.57;;;1.20;99.90;;;;;;5071727;28;20718;-66
2023/01/20 02:16:43;;;;;;;12.50;10.27;;;1.30;99.90;;;;;;5055193;28;20167;-65
2023/01/20 02:19:32;;;;;;;12.07;10.80;;;1.20;99.90;;;;;;5059760;28;20228;-66
2023/01/20 02:22:19;;;;;;;11.20;10.30;;;1.30;99.90;;;;;;5074923;28;20181;-65
2023/01/20 02:24:58;;;;;;;10.13;9.17;;;1.30;99.90;;;;;;5064610;28;20175;-66
2023/01/20 02:27:48;;;;;;;9.63;8.20;;;1.30;99.90;;;;;;5054828;28;20174;-66
2023/01/20 02:30:22;;;;;;;10.83;9.83;;;1.30;99.90;;;;;;5067800;28;20181;-65
2023/01/20 02:32:51;;;;;;;9.83;9.03;;;1.40;99.90;;;;;;5074539;28;20190;-65
2023/01/20 02:35:28;;;;;;;10.10;9.37;;;1.40;99.90;;;;;;5061217;28;20175;-65
2023/01/20 02:38:05;;;;;;;8.53;8.03;;;1.40;99.90;;;;;;5055399;28;20624;-65
2023/01/20 02:40:46;;;;;;;13.13;9.70;;;1.50;99.90;;;;;;5070549;28;20170;-65
2023/01/20 02:43:40;;;;;;;9.57;8.80;;;1.50;99.90;;;;;;5074408;28;20284;-65
2023/01/20 02:46:48;;;;;;;9.47;8.80;;;1.60;99.90;;;;;;5034465;28;20267;-65
2023/01/20 02:49:31;;;;;;;7.70;7.20;;;1.70;99.90;;;;;;5044049;28;20201;-65
2023/01/20 02:52:02;;;;;;;8.80;7.93;;;1.70;99.90;;;;;;5072302;28;20205;-65
2023/01/20 02:54:30;;;;;;;9.23;8.53;;;1.70;99.90;;;;;;5074149;28;20190;-65
2023/01/20 02:56:58;;;;;;;8.53;7.93;;;1.70;99.90;;;;;;5067802;28;20179;-65
2023/01/20 02:59:29;;;;;;;10.20;9.13;;;1.80;99.90;;;;;;5053728;28;20661;-65
2023/01/20 03:02:12;;;;;;;16.27;8.80;;;1.80;99.90;;;;;;5058936;28;20186;-65
2023/01/20 03:04:43;;;;;;;9.93;9.00;;;1.80;99.90;;;;;;5073628;28;20196;-65
2023/01/20 03:07:10;;;;;;;9.43;8.73;;;1.80;99.90;;;;;;5065719;28;20185;-65
2023/01/20 03:09:47;;;;;;;11.93;10.70;;;1.90;99.90;;;;;;5054901;28;20179;-65
2023/01/20 03:12:17;;;;;;;10.70;9.80;;;1.90;99.90;;;;;;5062156;28;20322;-66
2023/01/20 03:14:43;;;;;;;9.43;8.63;;;1.90;99.90;;;;;;5073705;28;20174;-65
2023/01/20 03:17:08;;;;;;;8.03;7.60;;;1.90;99.90;;;;;;5069505;28;20179;-65
2023/01/20 03:19:35;;;;;;;13.53;9.10;;;1.80;99.90;;;;;;5059678;28;20581;-66
2023/01/20 03:22:00;;;;;;;10.87;10.03;;;1.80;99.90;;;;;;5059973;28;20214;-64
2023/01/20 03:24:31;;;;;;;7.63;7.13;;;1.70;99.90;;;;;;5072970;28;20682;-66
2023/01/20 03:26:58;;;;;;;12.47;10.47;;;1.60;99.90;;;;;;5067052;28;20274;-65
2023/01/20 03:29:23;;;;;;;7.83;7.33;;;1.60;99.90;;;;;;5052460;28;20197;-65
2023/01/20 03:31:53;;;;;;;11.30;10.40;;;1.60;99.90;;;;;;5056002;28;20198;-65
2023/01/20 03:34:22;;;;;;;9.57;9.00;;;1.60;99.90;;;;;;5072976;28;20277;-66
2023/01/20 03:36:48;;;;;;;11.27;10.23;;;1.60;99.90;;;;;;5068342;28;20655;-65
2023/01/20 03:39:14;;;;;;;9.57;8.90;;;1.70;99.90;;;;;;5052194;28;20601;-65
2023/01/20 03:42:09;;;;;;;8.47;7.80;;;1.70;99.90;;;;;;5054224;28;20263;-66
2023/01/20 03:44:53;;;;;;;17.87;9.60;;;1.70;99.90;;;;;;5060095;28;20228;-65
2023/01/20 03:47:35;;;;;;;10.90;9.87;;;1.70;99.90;;;;;;5064196;28;20183;-65
2023/01/20 03:50:07;;;;;;;10.57;9.47;;;1.70;99.90;;;;;;5052054;28;20210;-65
2023/01/20 03:52:51;;;;;;;14.40;9.27;;;1.70;99.90;;;;;;5062030;28;20194;-64
2023/01/20 03:55:33;;;;;;;8.70;8.20;;;1.70;99.90;;;;;;5065841;28;20175;-65
2023/01/20 03:58:10;;;;;;;9.47;8.67;;;1.60;99.90;;;;;;5052786;28;20199;-65
2023/01/20 04:00:42;;;;;;;9.07;8.40;;;1.60;99.90;;;;;;5061510;28;20185;-65
2023/01/20 04:03:15;;;;;;;10.07;9.27;;;1.60;99.90;;;;;;5073038;28;20205;-65
2023/01/20 04:05:42;;;;;;;10.17;9.30;;;1.60;99.90;;;;;;5066628;28;20183;-65
2023/01/20 04:08:09;;;;;;;12.33;9.50;;;1.70;99.90;;;;;;5051238;28;20175;-65
2023/01/20 04:10:39;;;;;;;11.43;10.23;;;1.70;99.90;;;;;;5052331;28;20230;-65
2023/01/20 04:13:04;;;;;;;9.97;9.17;;;1.70;99.90;;;;;;5052814;28;20191;-65
2023/01/20 04:15:41;;;;;;;11.00;9.63;;;1.80;99.90;;;;;;5052856;28;20175;-65
2023/01/20 04:18:16;;;;;;;13.83;9.73;;;1.80;99.90;;;;;;5052904;28;20247;-65
2023/01/20 04:20:44;;;;;;;9.37;8.47;;;1.90;99.90;;;;;;5061636;28;20181;-65
2023/01/20 04:23:23;;;;;;;10.90;10.10;;;1.90;99.90;;;;;;5072482;28;20186;-65
2023/01/20 04:25:49;;;;;;;9.30;8.53;;;1.90;99.90;;;;;;5061795;28;20178;-64
2023/01/20 04:28:14;;;;;;;8.83;8.13;;;1.80;99.90;;;;;;5052286;28;20308;-65
2023/01/20 04:30:40;;;;;;;10.03;9.23;;;1.70;99.90;;;;;;5060491;28;20216;-65
2023/01/20 04:33:05;;;;;;;10.93;10.03;;;1.60;99.90;;;;;;5072686;28;20554;-65
2023/01/20 04:35:31;;;;;;;11.20;9.63;;;1.50;99.90;;;;;;5072153;28;20178;-64
2023/01/20 04:37:56;;;;;;;9.13;8.47;;;1.50;99.90;;;;;;5071120;28;20170;-64
2023/01/20 04:40:22;;;;;;;9.70;8.83;;;1.50;99.90;;;;;;5064954;28;20659;-65
2023/01/20 04:42:48;;;;;;;10.43;9.53;;;1.40;99.90;;;;;;5051159;28;20273;-64
2023/01/20 04:45:15;;;;;;;9.70;8.97;;;1.40;99.90;;;;;;5051830;28;20358;-64
2023/01/20 04:47:41;;;;;;;9.57;8.83;;;1.30;99.90;;;;;;5051450;28;20219;-65
2023/01/20 04:50:08;;;;;;;10.87;10.00;;;1.30;99.90;;;;;;5053532;28;20458;-64
2023/01/20 04:52:34;;;;;;;9.43;8.90;;;1.20;99.90;;;;;;5071398;28;20949;-64
2023/01/20 04:54:59;;;;;;;10.20;9.57;;;1.20;99.90;;;;;;5067702;28;20174;-64
2023/01/20 04:57:25;;;;;;;10.83;9.87;;;1.10;99.90;;;;;;5051313;28;20171;-64
2023/01/20 04:59:50;;;;;;;9.97;9.13;;;1.10;99.90;;;;;;5052222;28;20183;-64
2023/01/20 05:02:16;;;;;;;10.87;10.17;;;1.50;99.90;;;;;;5074387;28;20543;-64
2023/01/20 05:04:41;;;;;;;9.17;8.63;;;1.10;99.90;;;;;;5074663;28;20178;-64
2023/01/20 05:07:07;;;;;;;13.23;10.17;;;1.10;99.90;;;;;;5075040;28;20181;-64
2023/01/20 05:09:33;;;;;;;10.17;9.27;;;1.10;99.90;;;;;;5076103;28;20588;-65
2023/01/20 05:11:58;;;;;;;10.93;9.93;;;1.20;99.90;;;;;;5056603;28;20210;-64
2023/01/20 05:14:24;;;;;;;10.00;9.37;;;1.20;99.90;;;;;;5055244;28;20251;-64
2023/01/20 05:16:49;;;;;;;10.00;9.13;;;1.20;99.90;;;;;;5072852;28;20189;-64
2023/01/20 05:19:15;;;;;;;10.50;9.73;;;1.20;99.90;;;;;;5074834;28;20227;-64
2023/01/20 05:21:41;;;;;;;11.63;10.70;;;1.20;99.90;;;;;;5057147;28;20183;-63
2023/01/20 05:24:08;;;;;;;8.80;8.10;;;1.20;99.90;;;;;;5054834;28;20197;-64
2023/01/20 05:26:33;;;;;;;9.20;8.37;;;1.20;99.90;;;;;;5070220;28;20225;-64
2023/01/20 05:28:59;;;;;;;10.47;9.47;;;1.20;99.90;;;;;;5058432;28;20229;-63
2023/01/20 05:31:25;;;;;;;11.17;10.17;;;1.20;99.90;;;;;;5040724;28;20215;-64
2023/01/20 05:33:50;;;;;;;10.80;9.97;;;1.10;99.90;;;;;;5034358;28;20669;-64
2023/01/20 05:36:16;;;;;;;11.13;10.07;;;1.10;99.90;;;;;;5060298;28;20884;-63
2023/01/20 05:38:42;;;;;;;10.73;9.53;;;1.10;99.90;;;;;;5077430;28;20249;-64
2023/01/20 05:41:08;;;;;;;10.80;9.47;;;1.10;99.90;;;;;;5063266;28;20527;-64
2023/01/20 05:43:35;;;;;;;15.17;10.03;;;1.00;99.90;;;;;;5055475;28;20289;-64
2023/01/20 05:46:00;;;;;;;9.77;9.10;;;1.00;99.90;;;;;;5054835;28;20637;-64
2023/01/20 05:48:26;;;;;;;10.27;9.67;;;1.00;99.90;;;;;;5064510;28;20261;-64
2023/01/20 05:50:52;;;;;;;10.93;10.07;;;0.90;99.90;;;;;;5058679;28;20213;-65
2023/01/20 05:53:18;;;;;;;10.70;9.90;;;0.90;99.90;;;;;;5058748;28;20632;-65
2023/01/20 05:55:44;;;;;;;10.30;9.33;;;0.90;99.90;;;;;;5074233;28;20183;-65
2023/01/20 05:58:09;;;;;;;9.83;9.07;;;0.90;99.90;;;;;;5071202;28;20174;-64
2023/01/20 06:00:35;;;;;;;10.73;9.83;;;0.90;99.90;;;;;;5054129;28;20174;-64
2023/01/20 06:03:01;;;;;;;11.80;10.60;;;0.90;99.90;;;;;;5057241;28;20266;-64
2023/01/20 06:05:27;;;;;;;15.10;9.23;;;0.90;99.90;;;;;;5077031;28;20182;-64
2023/01/20 06:07:56;;;;;;;11.20;10.27;;;1.00;99.90;;;;;;5075839;28;20647;-64
2023/01/20 06:10:29;;;;;;;10.20;9.43;;;1.10;99.90;;;;;;5054024;28;20175;-65
2023/01/20 06:12:55;;;;;;;10.23;9.30;;;1.10;99.90;;;;;;5054329;28;20269;-64
2023/01/20 06:15:22;;;;;;;10.00;9.43;;;1.10;99.90;;;;;;5074343;28;20169;-64
2023/01/20 06:17:49;;;;;;;10.80;10.03;;;1.20;99.90;;;;;;5073926;28;20163;-64
2023/01/20 06:20:15;;;;;;;11.10;10.13;;;1.30;99.90;;;;;;5053658;28;20201;-64
2023/01/20 06:22:41;;;;;;;10.23;9.33;;;1.30;99.90;;;;;;5053813;28;20187;-65
2023/01/20 06:25:07;;;;;;;11.53;10.20;;;1.30;99.90;;;;;;5054873;28;20328;-64
2023/01/20 06:27:32;;;;;;;9.17;8.47;;;1.30;99.90;;;;;;5053912;28;20182;-65
2023/01/20 06:29:58;;;;;;;10.63;9.57;;;1.30;99.90;;;;;;5070222;28;20543;-65
2023/01/20 06:32:24;;;;;;;8.33;7.73;;;1.30;99.90;;;;;;5073805;28;20209;-64
2023/01/20 06:34:51;;;;;;;13.07;10.80;;;1.30;99.90;;;;;;5057375;28;20183;-65
2023/01/20 06:37:17;;;;;;;9.13;8.43;;;1.30;99.90;;;;;;5053756;28;20178;-64
2023/01/20 06:39:43;;;;;;;9.23;8.63;;;1.30;99.90;;;;;;5067756;28;20182;-65
2023/01/20 06:42:08;;;;;;;11.23;10.33;;;1.30;99.90;;;;;;5073510;28;20178;-65
2023/01/20 06:44:34;;;;;;;10.20;9.40;;;1.30;99.90;;;;;;5059451;28;20183;-64
2023/01/20 06:46:59;;;;;;;9.53;8.80;;;1.30;99.90;;;;;;5053554;28;20179;-64
2023/01/20 06:49:25;;;;;;;9.53;8.93;;;1.30;99.90;;;;;;5064988;28;20642;-65
2023/01/20 06:51:51;;;;;;;12.23;10.93;;;1.40;99.90;;;;;;5073240;28;20193;-65
2023/01/20 06:54:16;;;;;;;10.87;9.90;;;1.40;99.90;;;;;;5061659;28;20579;-65
2023/01/20 06:56:42;;;;;;;10.50;9.40;;;1.50;99.90;;;;;;5053217;28;20243;-65
2023/01/20 06:59:11;;;;;;;11.20;10.00;;;1.50;99.90;;;;;;5062310;28;20174;-65
2023/01/20 07:01:37;;;;;;;14.60;10.70;;;1.60;99.90;;;;;;5055835;28;20232;-64
2023/01/20 07:04:03;;;;;;;10.83;10.13;;;1.70;99.90;;;;;;5060783;28;20244;-64
2023/01/20 07:06:31;;;;;;;9.17;8.43;;;1.70;99.90;;;;;;5052956;28;20536;-64
2023/01/20 07:08:58;;;;;;;9.30;8.67;;;1.80;99.90;;;;;;5053375;28;20676;-65
2023/01/20 07:11:24;;;;;;;9.03;8.33;;;1.80;99.90;;;;;;5063785;28;20205;-65
2023/01/20 07:13:50;;;;;;;15.50;8.50;;;1.90;99.90;;;;;;5067109;28;20197;-64
2023/01/20 07:16:16;;;;;;;8.43;7.93;;;1.90;99.90;;;;;;5052776;28;20305;-65
2023/01/20 07:18:42;;;;;;;8.47;7.97;;;2.00;99.90;;;;;;5056459;28;20171;-65
2023/01/20 07:21:10;;;;;;;11.77;8.50;;;2.00;99.90;;;;;;5072540;28;20166;-65
2023/01/20 07:23:36;;;;;;;9.87;9.07;;;2.00;99.90;;;;;;5068566;28;20277;-65
2023/01/20 07:26:05;;;;;;;10.37;9.43;;;2.00;99.90;;;;;;5052673;28;20254;-66
2023/01/20 07:28:31;;;;;;;9.47;8.67;;;2.00;99.90;;;;;;5053717;28;20175;-65
2023/01/20 07:31:08;;;;;;;12.83;8.40;;;2.00;99.90;;;;;;5052153;28;20202;-65
2023/01/20 07:33:35;;;;;;;9.90;9.10;;;2.00;99.90;;;;;;5054495;28;20222;-65
2023/01/20 07:36:00;;;;;;;10.70;9.70;;;2.00;99.90;;;;;;5073485;28;20213;-65
2023/01/20 07:38:26;;;;;;;9.80;9.07;;;1.90;99.90;;;;;;5072031;28;20170;-65
2023/01/20 07:40:56;;;;;;;10.63;9.73;;;1.90;99.90;;;;;;5072805;28;20647;-65
2023/01/20 07:43:22;;;;;;;9.60;8.80;;;1.90;99.90;;;;;;5072353;28;20209;-65
2023/01/20 07:45:48;;;;;;;11.40;9.97;;;1.90;99.90;;;;;;5056686;28;20291;-65
2023/01/20 07:48:13;;;;;;;11.03;9.77;;;1.90;99.90;;;;;;5065166;28;20269;-65
2023/01/20 07:50:39;;;;;;;9.57;8.67;;;2.00;99.90;;;;;;5052051;28;20252;-64
2023/01/20 07:53:04;;;;;;;10.80;9.70;;;2.00;99.90;;;;;;5048470;28;20192;-64
2023/01/20 07:55:31;;;;;;;9.27;8.33;;;2.00;99.90;;;;;;5032403;28;20183;-64
2023/01/20 07:57:57;;;;;;;9.67;8.90;;;2.00;99.90;;;;;;5039579;28;20581;-65
2023/01/20 08:00:23;;;;;;;15.67;9.17;;;2.10;99.90;;;;;;5071765;28;20171;-64
2023/01/20 08:02:49;;;;;;;18.17;10.47;;;2.10;99.90;;;;;;5068389;28;20604;-65
2023/01/20 08:05:15;;;;;;;8.03;7.53;;;2.20;99.90;;;;;;5052134;28;20178;-64
2023/01/20 08:07:40;;;;;;;13.17;9.20;;;2.20;99.90;;;;;;5052755;28;20221;-64
2023/01/20 08:10:06;;;;;;;9.00;8.37;;;2.30;99.90;;;;;;5062502;28;20171;-64
2023/01/20 08:12:32;;;;;;;10.37;9.60;;;2.30;99.90;;;;;;5050454;28;20203;-64
2023/01/20 08:14:57;;;;;;;20.80;10.13;;;2.40;99.90;;;;;;5051550;28;20230;-65
2023/01/20 08:17:23;;;;;;;11.00;9.83;;;2.50;99.90;;;;;;5051775;28;20182;-64
2023/01/20 08:19:49;;;;;;;11.03;9.90;;;2.60;99.90;;;;;;5066956;28;20174;-65
2023/01/20 08:22:14;;;;;;;9.10;8.50;;;2.40;99.90;;;;;;5060211;28;20289;-64
2023/01/20 08:24:40;;;;;;;9.60;8.70;;;2.50;99.90;;;;;;5050505;28;20178;-65
2023/01/20 08:27:06;;;;;;;9.50;8.90;;;2.40;99.90;;;;;;5052029;28;20214;-64
2023/01/20 08:29:32;;;;;;;8.97;8.43;;;2.30;99.90;;;;;;5051414;28;20186;-65
2023/01/20 08:32:01;;;;;;;10.37;9.67;;;2.20;99.90;;;;;;5059724;28;20198;-64
2023/01/20 08:34:27;;;;;;;13.03;9.63;;;2.20;99.90;;;;;;5061478;28;20199;-64
2023/01/20 08:36:56;;;;;;;10.20;9.40;;;2.20;99.90;;;;;;5060674;28;20174;-64
2023/01/20 08:39:22;;;;;;;10.27;9.27;;;2.20;99.90;;;;;;5072308;28;20277;-64
2023/01/20 08:41:49;;;;;;;7.53;7.03;;;2.40;99.90;;;;;;5065569;28;20182;-64
2023/01/20 08:44:16;;;;;;;7.60;7.10;;;2.60;99.90;;;;;;5051268;28;20214;-65
2023/01/20 08:46:43;;;;;;;8.03;7.53;;;2.70;99.90;;;;;;5055419;28;20222;-64
2023/01/20 08:49:12;;;;;;;8.17;7.57;;;2.90;99.90;;;;;;5062642;28;20236;-65
2023/01/20 08:51:38;;;;;;;8.57;8.07;;;3.00;99.90;;;;;;5060143;28;20244;-64
2023/01/20 08:54:04;;;;;;;7.90;7.37;;;3.00;99.90;;;;;;5070682;28;20213;-64
2023/01/20 08:56:30;;;;;;;9.20;7.90;;;2.90;99.90;;;;;;5056254;28;20183;-65
2023/01/20 08:58:56;;;;;;;7.87;7.47;;;2.90;99.90;;;;;;5051114;28;20627;-64
2023/01/20 09:01:24;;;;;;;9.70;7.63;;;2.90;99.90;;;;;;5062047;28;20186;-66
2023/01/20 09:03:52;;;;;;;8.13;7.63;;;2.90;99.90;;;;;;5070169;28;20193;-64
2023/01/20 09:06:18;;;;;;;13.87;8.10;;;3.20;99.90;;;;;;5061093;28;20193;-64
2023/01/20 09:08:44;;;;;;;8.00;7.50;;;3.40;99.90;;;;;;5051279;28;20187;-64
2023/01/20 09:11:19;;;;;;;10.47;9.77;;;3.60;99.90;;;;;;5059261;28;20225;-64
2023/01/20 09:13:45;;;;;;;12.93;9.23;;;3.80;99.90;;;;;;5071080;28;20235;-64
2023/01/20 09:16:15;;;;;;;8.50;8.00;;;3.80;99.90;;;;;;5062202;28;20202;-65
2023/01/20 09:18:41;;;;;;;9.23;8.37;;;3.70;99.90;;;;;;5051455;28;20167;-65
2023/01/20 09:21:08;;;;;;;9.40;8.70;;;3.60;99.90;;;;;;5058808;28;20186;-64
2023/01/20 09:23:36;;;;;;;9.87;9.13;;;3.40;99.90;;;;;;5071699;28;20210;-64
2023/01/20 09:26:05;;;;;;;13.93;8.63;;;3.40;99.90;;;;;;5064172;28;20245;-65
2023/01/20 09:28:32;;;;;;;9.30;8.60;;;3.30;99.90;;;;;;5052019;28;20179;-65
2023/01/20 09:31:03;;;;;;;19.27;9.37;;;3.20;99.90;;;;;;5055713;28;20209;-64
2023/01/20 09:33:29;;;;;;;9.13;8.43;;;3.30;99.90;;;;;;5071554;28;20224;-64
2023/01/20 09:35:58;;;;;;;8.73;8.20;;;3.40;99.90;;;;;;5070318;28;20214;-64
2023/01/20 09:44:14;;;;;;;7.27;6.87;;;4.10;99.90;;;;;;5068833;28;20295;-65
2023/01/20 09:47:28;;;;;;;8.33;7.73;;;4.20;99.90;;;;;;5057207;28;20609;-65
2023/01/20 09:53:02;;;;;;;8.83;8.40;;;3.90;99.90;;;;;;5074837;28;20205;-64
2023/01/20 09:55:43;;;;;;;10.13;9.50;;;3.70;99.90;;;;;;5074484;28;20166;-64
2023/01/20 09:58:30;;;;;;;9.30;8.63;;;3.50;99.90;;;;;;5074427;28;20162;-64
2023/01/20 10:01:17;;;;;;;8.67;8.07;;;3.30;99.90;;;;;;5069081;28;20173;-64
2023/01/20 10:04:02;;;;;;;9.20;8.03;;;3.20;99.90;;;;;;5053934;28;20748;-64
2023/01/20 10:06:40;;;;;;;8.13;7.60;;;3.20;99.90;;;;;;5054265;28;20209;-64
2023/01/20 10:09:31;;;;;;;8.07;7.37;;;3.20;99.90;;;;;;5054209;28;20261;-64
2023/01/20 10:12:21;;;;;;;8.53;8.03;;;3.20;99.90;;;;;;5069125;28;20291;-64
2023/01/20 10:15:06;;;;;;;7.83;7.43;;;3.20;99.90;;;;;;5054047;28;20242;-64
2023/01/20 10:17:51;;;;;;;8.40;7.73;;;3.10;99.90;;;;;;5054027;28;20174;-66
2023/01/20 10:20:53;;;;;;;8.87;8.33;;;3.10;99.90;;;;;;5053695;28;20171;-64
2023/01/20 10:23:41;;;;;;;12.43;8.20;;;3.10;99.90;;;;;;5044913;28;20209;-64
2023/01/20 10:26:26;;;;;;;9.40;8.63;;;3.20;99.90;;;;;;5053955;28;20199;-64
2023/01/20 10:29:04;;;;;;;8.77;8.20;;;3.30;99.90;;;;;;5053812;28;20198;-64
2023/01/20 10:31:36;;;;;;;9.37;8.77;;;3.40;99.90;;;;;;5053408;28;20204;-64
2023/01/20 10:34:11;;;;;;;10.10;9.50;;;3.50;99.90;;;;;;5051424;28;20551;-65
2023/01/20 10:36:40;;;;;;;8.73;8.23;;;3.50;99.90;;;;;;5053776;28;20179;-64
2023/01/20 10:39:32;;;;;;;9.77;9.07;;;3.50;99.90;;;;;;5053386;28;20254;-64
2023/01/20 10:42:04;;;;;;;9.57;8.97;;;3.50;99.90;;;;;;5053531;28;20171;-64
2023/01/20 10:44:34;;;;;;;11.10;10.40;;;3.60;99.90;;;;;;5053299;28;20237;-64
2023/01/20 10:47:19;;;;;;;9.90;9.07;;;3.70;99.90;;;;;;5053339;28;20167;-64
2023/01/20 10:50:13;;;;;;;10.23;9.43;;;3.70;99.90;;;;;;5052983;28;20537;-65
2023/01/20 10:53:13;;;;;;;9.40;8.90;;;3.70;99.90;;;;;;5053059;28;20203;-63
2023/01/20 10:56:08;;;;;;;10.70;10.10;;;3.70;99.90;;;;;;5053463;28;20262;-64
2023/01/20 10:58:42;;;;;;;10.63;10.00;;;3.60;99.90;;;;;;5051998;28;20670;-64
2023/01/20 11:01:14;;;;;;;10.17;9.67;;;3.60;99.90;;;;;;5053132;28;20656;-64
2023/01/20 11:03:45;;;;;;;10.27;9.67;;;3.50;99.90;;;;;;5050720;28;20198;-64
2023/01/20 11:06:25;;;;;;;10.53;9.90;;;3.40;99.90;;;;;;5053221;28;20171;-64
2023/01/20 11:08:51;;;;;;;10.43;9.60;;;3.40;99.90;;;;;;5053265;28;20175;-64
2023/01/20 11:11:20;;;;;;;9.40;8.90;;;3.40;99.90;;;;;;5054811;28;20293;-64
2023/01/20 11:13:46;;;;;;;10.03;9.43;;;3.30;99.90;;;;;;5061946;28;20190;-64
2023/01/20 11:16:19;;;;;;;8.30;7.93;;;3.30;99.90;;;;;;5052734;28;20590;-64
2023/01/20 11:19:00;;;;;;;8.80;8.40;;;3.30;99.90;;;;;;5052447;28;20171;-64
2023/01/20 11:21:28;;;;;;;9.90;9.03;;;3.30;99.90;;;;;;5052553;28;20175;-64
2023/01/20 11:23:55;;;;;;;9.13;8.50;;;3.40;99.90;;;;;;5052489;28;20201;-63
2023/01/20 11:26:36;;;;;;;8.17;7.67;;;3.40;99.90;;;;;;5052581;28;20267;-64
2023/01/20 11:29:10;;;;;;;9.20;8.53;;;3.40;99.90;;;;;;5033548;28;20229;-64
2023/01/20 11:31:41;;;;;;;9.13;8.53;;;3.50;99.90;;;;;;5032610;28;20207;-63
2023/01/20 11:34:25;;;;;;;8.40;7.97;;;3.50;99.90;;;;;;5032580;28;20191;-64
2023/01/20 11:37:19;;;;;;;8.37;7.87;;;3.60;99.90;;;;;;5032321;28;20164;-67
2023/01/20 11:39:48;;;;;;;8.00;7.60;;;3.60;99.90;;;;;;5041585;28;20241;-65
2023/01/20 11:42:24;;;;;;;8.57;8.17;;;3.60;99.90;;;;;;5071965;28;20268;-65
2023/01/20 11:44:54;;;;;;;9.20;8.50;;;3.60;99.90;;;;;;5068242;28;20182;-65
2023/01/20 11:47:33;;;;;;;8.43;7.67;;;3.60;99.90;;;;;;5052897;28;20262;-64
2023/01/20 11:50:08;;;;;;;8.43;8.03;;;3.60;99.90;;;;;;5052226;28;20187;-65
2023/01/20 11:52:43;;;;;;;10.07;9.50;;;3.50;99.90;;;;;;5051968;28;20198;-64
2023/01/20 11:55:13;;;;;;;9.80;9.20;;;3.50;99.90;;;;;;5059839;28;20231;-65
2023/01/20 11:58:02;;;;;;;9.23;8.57;;;3.50;99.90;;;;;;5072213;28;20174;-65
2023/01/20 12:00:41;;;;;;;8.50;7.90;;;3.50;99.90;;;;;;5061066;28;20236;-64
2023/01/20 12:03:09;;;;;;;8.87;8.37;;;3.50;99.90;;;;;;5052255;28;20190;-65
2023/01/20 12:05:53;;;;;;;8.00;7.40;;;3.40;99.90;;;;;;5061764;28;20540;-65
2023/01/20 12:08:45;;;;;;;6.90;6.60;;;3.30;99.90;;;;;;5071909;28;20174;-65
2023/01/20 12:11:15;;;;;;;6.80;6.30;;;3.10;99.90;;;;;;5058924;28;20274;-65
2023/01/20 12:16:43;;;;;;;7.33;6.93;;;2.90;99.90;;;;;;5052037;28;20174;-65
2023/01/20 12:19:14;;;;;;;8.27;7.77;;;2.90;99.90;;;;;;5051813;28;20269;-65
2023/01/20 12:21:44;;;;;;;6.73;6.43;;;2.90;99.90;;;;;;5052517;28;20256;-65
2023/01/20 12:24:27;;;;;;;7.73;7.33;;;2.80;99.90;;;;;;5072478;28;20632;-65
2023/01/20 12:26:53;;;;;;;8.43;7.90;;;2.70;99.90;;;;;;5072611;28;20182;-65
2023/01/20 12:29:26;;;;;;;8.53;7.77;;;2.60;99.90;;;;;;5053379;28;20209;-64
2023/01/20 12:31:53;;;;;;;8.23;7.67;;;2.60;99.90;;;;;;5050541;28;20705;-64
2023/01/20 12:34:37;;;;;;;8.27;7.73;;;2.50;99.90;;;;;;5071734;28;20197;-64
2023/01/20 12:37:42;;;;;;;8.23;7.47;;;2.50;99.90;;;;;;5072322;28;20176;-65
2023/01/20 12:40:20;;;;;;;8.20;7.60;;;2.40;99.90;;;;;;5053704;28;20269;-64
2023/01/20 12:43:20;;;;;;;7.37;6.97;;;2.40;99.90;;;;;;5051081;28;20654;-64
2023/01/20 12:46:17;;;;;;;8.37;7.50;;;2.40;99.90;;;;;;5051262;28;20167;-64
2023/01/20 12:49:18;;;;;;;8.00;7.60;;;2.30;99.90;;;;;;5063273;28;20551;-65
2023/01/20 12:52:10;;;;;;;8.40;7.90;;;2.30;99.90;;;;;;5071157;28;20682;-65
2023/01/20 12:55:17;;;;;;;7.70;7.20;;;2.20;99.90;;;;;;5051804;28;20214;-65
2023/01/20 12:58:24;;;;;;;7.37;6.80;;;2.20;99.90;;;;;;5014963;28;20191;-65
2023/01/20 13:00:55;;;;;;;8.27;7.60;;;2.10;99.90;;;;;;5050667;28;20174;-65
2023/01/20 13:03:59;;;;;;;7.97;7.47;;;2.10;99.90;;;;;;5058973;28;20601;-65
2023/01/20 13:06:46;;;;;;;8.20;7.70;;;2.10;99.90;;;;;;5028883;28;20175;-65
2023/01/20 13:09:20;;;;;;;7.63;7.00;;;2.10;99.90;;;;;;5014222;28;20219;-66
2023/01/20 13:12:13;;;;;;;7.97;7.57;;;2.00;99.90;;;;;;5037256;28;20598;-65
2023/01/20 13:14:43;;;;;;;8.50;8.00;;;2.00;99.90;;;;;;5068114;28;20231;-65
2023/01/20 13:17:26;;;;;;;8.67;8.13;;;2.00;99.90;;;;;;5072255;28;20533;-65
2023/01/20 13:19:56;;;;;;;8.43;7.80;;;2.00;99.90;;;;;;5051609;28;20325;-65
2023/01/20 13:22:23;;;;;;;9.63;8.73;;;2.20;99.90;;;;;;5055174;28;20171;-65
2023/01/20 13:24:57;;;;;;;8.87;8.27;;;2.00;99.90;;;;;;5074238;28;20273;-65
2023/01/20 13:27:44;;;;;;;8.03;7.53;;;2.00;99.90;;;;;;5074216;28;20544;-65